createdAt,value
2022-12-19T00:00:01.647Z,0.87
2022-12-19T00:02:28.186Z,0.89
2022-12-19T00:04:54.691Z,0.84
2022-12-19T00:07:21.028Z,0.88
2022-12-19T00:09:47.475Z,0.88
2022-12-19T00:12:19.064Z,0.89
2022-12-19T00:14:48.176Z,0.90
2022-12-19T00:17:14.590Z,0.91
2022-12-19T00:19:41.030Z,0.91
2022-12-19T00:22:11.194Z,0.90
2022-12-19T00:24:37.950Z,0.93
2022-12-19T00:27:04.312Z,0.96
2022-12-19T00:29:30.712Z,0.97
2022-12-19T00:31:59.120Z,0.97
2022-12-19T00:34:25.689Z,0.98
2022-12-19T00:36:52.065Z,0.99
2022-12-19T00:39:18.467Z,1.00
2022-12-19T00:41:45.583Z,1.00
2022-12-19T00:44:12.612Z,1.01
2022-12-19T00:46:39.152Z,1.02
2022-12-19T00:49:06.948Z,1.01
2022-12-19T00:51:34.174Z,1.03
2022-12-19T00:54:01.128Z,1.03
2022-12-19T00:56:30.383Z,1.06
2022-12-19T00:58:57.072Z,1.07
2022-12-19T01:01:24.615Z,1.06
2022-12-19T01:04:25.934Z,1.07
2022-12-19T01:06:39.032Z,1.10
2022-12-19T01:09:05.488Z,1.08
2022-12-19T01:11:31.897Z,1.09
2022-12-19T01:13:58.256Z,1.09
2022-12-19T01:16:24.711Z,1.10
2022-12-19T01:18:51.877Z,1.13
2022-12-19T01:21:18.285Z,1.17
2022-12-19T01:23:46.138Z,1.15
2022-12-19T01:26:13.223Z,1.19
2022-12-19T01:28:39.969Z,1.22
2022-12-19T01:31:06.579Z,1.25
2022-12-19T01:33:34.684Z,1.26
2022-12-19T01:36:01.091Z,1.30
2022-12-19T01:38:27.654Z,1.30
2022-12-19T01:40:56.624Z,1.34
2022-12-19T01:43:23.968Z,1.39
2022-12-19T01:45:54.699Z,1.42
2022-12-19T01:48:22.656Z,1.44
2022-12-19T01:51:00.871Z,1.45
2022-12-19T01:53:31.647Z,1.49
2022-12-19T01:56:00.585Z,1.50
2022-12-19T01:58:27.008Z,1.53
2022-12-19T02:00:53.503Z,1.54
2022-12-19T02:03:22.503Z,1.58
2022-12-19T02:05:51.046Z,1.60
2022-12-19T02:08:18.385Z,1.64
2022-12-19T02:10:45.318Z,1.70
2022-12-19T02:13:15.381Z,1.73
2022-12-19T02:15:46.953Z,1.76
2022-12-19T02:18:17.184Z,1.79
2022-12-19T02:20:52.583Z,1.83
2022-12-19T02:23:42.329Z,1.87
2022-12-19T02:26:16.271Z,1.87
2022-12-19T02:28:56.277Z,1.90
2022-12-19T02:31:27.887Z,1.92
2022-12-19T02:33:57.485Z,1.94
2022-12-19T02:36:29.280Z,1.95
2022-12-19T02:39:00.721Z,1.99
2022-12-19T02:41:29.266Z,2.05
2022-12-19T02:43:59.037Z,2.05
2022-12-19T02:46:29.811Z,2.11
2022-12-19T02:48:56.857Z,2.13
2022-12-19T02:51:23.244Z,2.16
2022-12-19T02:53:49.848Z,2.19
2022-12-19T02:56:22.986Z,2.23
2022-12-19T02:58:58.691Z,2.26
2022-12-19T03:01:36.324Z,2.29
2022-12-19T03:04:10.237Z,2.33
2022-12-19T03:06:42.729Z,2.35
2022-12-19T03:09:15.734Z,2.37
2022-12-19T03:11:42.774Z,2.38
2022-12-19T03:14:11.976Z,2.39
2022-12-19T03:16:39.865Z,2.42
2022-12-19T03:19:09.275Z,2.47
2022-12-19T03:21:36.415Z,2.50
2022-12-19T03:24:03.897Z,2.50
2022-12-19T03:26:32.520Z,2.54
2022-12-19T03:29:01.614Z,2.55
2022-12-19T03:31:29.841Z,2.59
2022-12-19T03:33:59.339Z,2.62
2022-12-19T03:36:28.459Z,2.64
2022-12-19T03:38:56.058Z,2.67
2022-12-19T03:41:24.549Z,2.72
2022-12-19T03:43:50.932Z,2.75
2022-12-19T03:46:21.778Z,2.76
2022-12-19T03:48:50.076Z,2.78
2022-12-19T03:51:23.351Z,2.78
2022-12-19T03:53:55.091Z,2.82
2022-12-19T03:56:26.034Z,2.87
2022-12-19T03:58:56.388Z,2.90
2022-12-19T04:01:23.667Z,2.93
2022-12-19T04:03:50.375Z,2.96
2022-12-19T04:06:18.487Z,3.00
2022-12-19T04:08:45.076Z,3.02
2022-12-19T04:11:15.894Z,3.06
2022-12-19T04:13:44.632Z,3.07
2022-12-19T04:16:15.637Z,3.11
2022-12-19T04:18:44.683Z,3.11
2022-12-19T04:21:13.161Z,3.13
2022-12-19T04:23:45.831Z,3.14
2022-12-19T04:26:13.489Z,3.23
2022-12-19T04:28:42.661Z,3.29
2022-12-19T04:31:11.215Z,3.34
2022-12-19T04:33:37.645Z,3.41
2022-12-19T04:36:04.250Z,3.44
2022-12-19T04:38:30.637Z,3.52
2022-12-19T04:40:58.451Z,3.58
2022-12-19T04:43:24.822Z,3.64
2022-12-19T04:45:56.936Z,3.69
2022-12-19T04:48:23.987Z,3.75
2022-12-19T04:50:50.404Z,3.81
2022-12-19T04:53:16.857Z,3.94
2022-12-19T04:55:43.258Z,4.01
2022-12-19T04:58:11.455Z,4.12
2022-12-19T05:00:38.604Z,4.26
2022-12-19T05:03:05.107Z,4.41
2022-12-19T05:05:31.623Z,4.51
2022-12-19T05:07:58.261Z,4.62
2022-12-19T05:10:24.665Z,4.70
2022-12-19T05:12:51.133Z,4.78
2022-12-19T05:15:18.909Z,4.84
2022-12-19T05:17:45.348Z,4.99
2022-12-19T05:20:11.701Z,5.03
2022-12-19T05:22:38.164Z,5.09
2022-12-19T05:25:05.137Z,5.12
2022-12-19T05:27:31.708Z,5.18
2022-12-19T05:29:58.049Z,5.24
2022-12-19T05:32:26.106Z,5.29
2022-12-19T05:34:52.562Z,5.38
2022-12-19T05:37:19.004Z,5.53
2022-12-19T05:39:45.436Z,5.65
2022-12-19T05:42:12.606Z,5.79
2022-12-19T05:44:39.347Z,5.86
2022-12-19T05:47:05.772Z,5.88
2022-12-19T05:49:33.571Z,5.97
2022-12-19T05:52:00.013Z,5.97
2022-12-19T05:54:26.449Z,6.00
2022-12-19T05:56:52.933Z,6.01
2022-12-19T05:59:19.274Z,6.10
2022-12-19T06:01:45.815Z,6.10
2022-12-19T06:04:12.200Z,6.17
2022-12-19T06:06:40.004Z,6.18
2022-12-19T06:09:06.391Z,6.22
2022-12-19T06:11:32.879Z,6.25
2022-12-19T06:13:59.241Z,6.29
2022-12-19T06:16:25.695Z,6.31
2022-12-19T06:18:52.124Z,6.36
2022-12-19T06:21:19.881Z,6.37
2022-12-19T06:23:47.764Z,6.49
2022-12-19T06:26:19.093Z,6.46
2022-12-19T06:28:46.850Z,6.49
2022-12-19T06:31:13.912Z,6.53
2022-12-19T06:33:40.583Z,6.54
2022-12-19T06:36:07.978Z,6.57
2022-12-19T06:38:34.632Z,6.63
2022-12-19T06:41:02.987Z,6.65
2022-12-19T06:43:29.465Z,6.64
2022-12-19T06:45:57.021Z,6.65
2022-12-19T06:48:23.527Z,6.63
2022-12-19T06:50:49.956Z,6.66
2022-12-19T06:53:16.400Z,6.68
2022-12-19T06:55:43.054Z,6.66
2022-12-19T06:58:10.978Z,6.67
2022-12-19T07:00:37.700Z,6.68
2022-12-19T07:03:05.142Z,6.68
2022-12-19T07:05:31.751Z,6.67
2022-12-19T07:07:58.393Z,6.71
2022-12-19T07:10:24.780Z,6.71
2022-12-19T07:12:51.203Z,6.75
2022-12-19T07:15:19.069Z,6.72
2022-12-19T07:17:45.653Z,6.74
2022-12-19T07:20:12.385Z,6.80
2022-12-19T07:22:39.139Z,6.81
2022-12-19T07:25:06.087Z,6.80
2022-12-19T07:27:35.867Z,6.80
2022-12-19T07:30:03.422Z,6.82
2022-12-19T07:32:31.208Z,6.84
2022-12-19T07:34:57.682Z,6.85
2022-12-19T07:37:24.053Z,6.86
2022-12-19T07:39:50.493Z,6.87
2022-12-19T07:42:16.943Z,6.89
2022-12-19T07:44:44.722Z,6.94
2022-12-19T07:47:11.106Z,7.01
2022-12-19T07:49:38.935Z,7.00
2022-12-19T07:52:05.400Z,6.99
2022-12-19T07:54:31.835Z,6.97
2022-12-19T07:56:58.466Z,6.96
2022-12-19T07:59:30.349Z,6.99
2022-12-19T08:01:58.903Z,7.02
2022-12-19T08:04:25.815Z,7.09
2022-12-19T08:06:53.645Z,7.10
2022-12-19T08:09:20.050Z,7.12
2022-12-19T08:11:46.518Z,7.16
2022-12-19T08:14:12.879Z,7.18
2022-12-19T08:17:11.058Z,7.17
2022-12-19T08:19:27.587Z,7.20
2022-12-19T08:21:55.706Z,7.21
2022-12-19T08:24:22.170Z,7.23
2022-12-19T08:26:48.609Z,7.22
2022-12-19T08:29:15.032Z,7.25
2022-12-19T08:31:41.413Z,7.30
2022-12-19T08:34:07.861Z,7.30
2022-12-19T08:36:34.249Z,7.27
2022-12-19T08:39:02.033Z,7.30
2022-12-19T08:41:28.769Z,7.40
2022-12-19T08:43:55.688Z,7.45
2022-12-19T08:46:22.298Z,7.47
2022-12-19T08:48:48.984Z,7.53
2022-12-19T08:51:15.924Z,7.59
2022-12-19T08:53:43.302Z,7.63
2022-12-19T08:56:12.869Z,7.66
2022-12-19T08:58:39.348Z,7.70
2022-12-19T09:01:07.020Z,7.72
2022-12-19T09:03:34.101Z,7.74
2022-12-19T09:06:20.314Z,7.78
2022-12-19T09:08:47.176Z,7.80
2022-12-19T09:11:15.863Z,7.82
2022-12-19T09:13:42.730Z,7.89
2022-12-19T09:16:11.254Z,7.92
2022-12-19T09:18:38.127Z,8.01
2022-12-19T09:21:07.782Z,8.05
2022-12-19T09:23:34.914Z,8.10
2022-12-19T09:26:02.116Z,8.11
2022-12-19T09:28:29.928Z,8.12
2022-12-19T09:30:57.117Z,8.16
2022-12-19T09:33:23.805Z,8.20
2022-12-19T09:35:50.852Z,8.23
2022-12-19T09:38:18.731Z,8.25
2022-12-19T09:40:52.236Z,8.25
2022-12-19T09:43:25.674Z,8.27
2022-12-19T09:45:56.333Z,8.33
2022-12-19T09:48:25.047Z,8.37
2022-12-19T09:50:55.517Z,8.41
2022-12-19T09:53:38.163Z,8.45
2022-12-19T09:56:10.771Z,8.51
2022-12-19T09:58:39.103Z,8.58
2022-12-19T10:01:13.919Z,8.64
2022-12-19T10:03:41.932Z,8.69
2022-12-19T10:07:16.200Z,8.71
2022-12-19T10:10:28.419Z,8.74
2022-12-19T10:12:46.643Z,8.74
2022-12-19T10:14:52.069Z,8.75
2022-12-19T10:17:26.041Z,8.75
2022-12-19T10:20:03.388Z,8.80
2022-12-19T10:22:36.110Z,8.83
2022-12-19T10:25:11.915Z,8.85
2022-12-19T10:27:58.569Z,8.85
2022-12-19T10:30:26.527Z,8.87
2022-12-19T10:33:01.157Z,8.88
2022-12-19T10:35:35.023Z,8.90
2022-12-19T10:38:13.573Z,8.97
2022-12-19T10:40:43.125Z,9.00
2022-12-19T10:43:19.153Z,9.02
2022-12-19T10:45:54.268Z,9.03
2022-12-19T10:48:31.050Z,9.07
2022-12-19T10:50:58.034Z,9.07
2022-12-19T10:53:28.097Z,9.06
2022-12-19T10:55:55.217Z,9.06
2022-12-19T10:58:23.132Z,9.07
2022-12-19T11:01:02.625Z,9.08
2022-12-19T11:03:31.213Z,9.10
2022-12-19T11:05:58.983Z,9.10
2022-12-19T11:08:26.559Z,9.10
2022-12-19T11:12:38.868Z,9.11
2022-12-19T11:20:39.281Z,9.08
2022-12-19T11:22:06.020Z,9.06
2022-12-19T11:27:45.300Z,9.03
2022-12-19T11:29:37.359Z,9.03
2022-12-19T11:29:40.990Z,9.02
2022-12-19T11:30:35.540Z,9.02
2022-12-19T11:33:23.315Z,8.99
2022-12-19T11:35:52.290Z,9.00
2022-12-19T11:38:21.106Z,9.01
2022-12-19T11:40:50.108Z,9.01
2022-12-19T11:46:10.105Z,9.02
2022-12-19T11:48:38.713Z,9.05
2022-12-19T11:51:12.713Z,9.09
2022-12-19T11:53:44.709Z,9.13
2022-12-19T11:56:16.156Z,9.21
2022-12-19T11:58:48.268Z,9.25
2022-12-19T12:01:23.669Z,9.30
2022-12-19T12:04:05.706Z,9.37
2022-12-19T12:06:39.721Z,9.43
2022-12-19T12:11:40.006Z,9.48
2022-12-19T12:18:34.206Z,9.56
2022-12-19T12:25:08.832Z,9.64
2022-12-19T12:31:02.138Z,9.93
2022-12-19T12:31:04.850Z,9.76
2022-12-19T12:31:50.063Z,10.16
2022-12-19T12:31:57.583Z,10.71
2022-12-19T12:32:02.270Z,10.46
2022-12-19T12:35:41.442Z,10.80
2022-12-19T12:37:18.797Z,10.87
2022-12-19T12:38:18.662Z,10.95
2022-12-19T12:40:52.123Z,10.90
2022-12-19T12:43:27.176Z,10.89
2022-12-19T12:45:53.635Z,10.85
2022-12-19T12:48:22.241Z,10.82
2022-12-19T12:50:54.843Z,10.83
2022-12-19T12:53:24.277Z,10.80
2022-12-19T12:55:55.116Z,10.81
2022-12-19T12:58:40.241Z,10.79
2022-12-19T13:01:08.642Z,10.78
2022-12-19T13:03:35.260Z,10.78
2022-12-19T13:06:04.910Z,10.76
2022-12-19T13:08:34.224Z,10.84
2022-12-19T13:11:02.870Z,10.90
2022-12-19T13:13:48.959Z,10.99
2022-12-19T13:16:36.234Z,10.99
2022-12-19T13:19:03.954Z,10.94
2022-12-19T13:21:55.611Z,10.96
2022-12-19T13:24:22.255Z,10.98
2022-12-19T13:26:50.811Z,11.00
2022-12-19T13:29:36.140Z,11.05
2022-12-19T13:32:13.233Z,11.19
2022-12-19T13:34:40.081Z,11.22
2022-12-19T13:39:52.070Z,11.18
2022-12-19T13:40:18.535Z,11.15
2022-12-19T13:42:51.825Z,11.15
2022-12-19T13:45:28.478Z,11.12
2022-12-19T13:47:56.128Z,11.06
2022-12-19T13:50:25.931Z,11.02
2022-12-19T13:52:52.921Z,10.98
2022-12-19T13:55:19.579Z,10.94
2022-12-19T13:57:47.609Z,10.93
2022-12-19T14:00:18.842Z,10.90
2022-12-19T14:02:48.508Z,10.93
2022-12-19T14:05:33.906Z,10.95
2022-12-19T14:08:16.130Z,10.94
2022-12-19T14:11:35.089Z,10.95
2022-12-19T14:13:57.431Z,10.90
2022-12-19T14:16:18.634Z,10.84
2022-12-19T14:18:48.193Z,10.82
2022-12-19T14:22:10.784Z,10.77
2022-12-19T14:24:09.077Z,10.75
2022-12-19T14:28:24.525Z,10.71
2022-12-19T14:29:45.595Z,10.67
2022-12-19T14:33:44.254Z,10.66
2022-12-19T14:36:04.824Z,10.64
2022-12-19T14:39:19.599Z,10.66
2022-12-19T14:41:09.036Z,10.65
2022-12-19T14:44:00.058Z,10.67
2022-12-19T14:53:51.414Z,10.61
2022-12-19T14:54:09.042Z,10.58
2022-12-19T14:54:37.843Z,10.53
2022-12-19T14:56:16.425Z,10.54
2022-12-19T14:58:52.324Z,10.56
2022-12-19T15:01:09.962Z,10.58
2022-12-19T15:03:44.021Z,10.61
2022-12-19T15:07:09.922Z,10.61
2022-12-19T15:11:03.121Z,10.58
2022-12-19T15:14:51.380Z,10.57
2022-12-19T15:15:03.566Z,10.54
2022-12-19T15:17:30.227Z,10.45
2022-12-19T15:19:56.638Z,10.40
2022-12-19T15:22:24.449Z,10.37
2022-12-19T15:24:50.899Z,10.34
2022-12-19T15:27:17.420Z,10.35
2022-12-19T15:29:44.562Z,10.35
2022-12-19T15:32:12.737Z,10.35
2022-12-19T15:34:46.641Z,10.37
2022-12-19T15:37:16.518Z,10.37
2022-12-19T15:39:44.479Z,10.34
2022-12-19T15:42:15.659Z,10.29
2022-12-19T15:44:43.381Z,10.27
2022-12-19T15:47:15.622Z,10.23
2022-12-19T15:49:42.061Z,10.18
2022-12-19T15:52:12.735Z,10.15
2022-12-19T15:54:48.469Z,10.15
2022-12-19T15:57:24.409Z,10.16
2022-12-19T15:59:51.103Z,10.15
2022-12-19T16:02:18.854Z,10.11
2022-12-19T16:04:46.146Z,10.08
2022-12-19T16:35:40.140Z,10.18
2022-12-19T16:49:11.610Z,10.22
2022-12-19T16:51:39.406Z,10.21
2022-12-19T16:54:05.847Z,10.20
2022-12-19T16:56:34.079Z,10.22
2022-12-19T16:59:03.389Z,10.25
2022-12-19T17:01:30.236Z,10.29
2022-12-19T17:03:56.843Z,10.35
2022-12-19T17:06:23.305Z,10.36
2022-12-19T17:08:51.070Z,10.42
2022-12-19T17:11:19.726Z,10.45
2022-12-19T17:13:48.129Z,10.48
2022-12-19T17:16:14.907Z,10.49
2022-12-19T17:18:42.897Z,10.49
2022-12-19T17:21:14.279Z,10.51
2022-12-19T17:23:40.777Z,10.49
2022-12-19T17:26:15.877Z,10.49
2022-12-19T17:28:44.380Z,10.47
2022-12-19T17:31:13.584Z,10.46
2022-12-19T17:33:40.385Z,10.43
2022-12-19T17:36:07.676Z,10.46
2022-12-19T17:38:34.638Z,10.45
2022-12-19T17:41:01.093Z,10.44
2022-12-19T17:43:29.021Z,10.41
2022-12-19T17:45:55.563Z,10.41
2022-12-19T17:48:25.285Z,10.45
2022-12-19T17:50:52.340Z,10.46
2022-12-19T17:53:18.878Z,10.46
2022-12-19T17:55:45.340Z,10.47
2022-12-19T17:58:11.993Z,10.47
2022-12-19T18:00:40.710Z,10.48
2022-12-19T18:03:15.839Z,10.52
2022-12-19T18:05:42.665Z,10.51
2022-12-19T18:08:19.330Z,10.51
2022-12-19T18:10:45.730Z,10.55
2022-12-19T18:13:12.195Z,10.57
2022-12-19T18:15:40.440Z,10.57
2022-12-19T18:18:11.472Z,10.58
2022-12-19T18:20:38.042Z,10.59
2022-12-19T18:23:09.730Z,10.61
2022-12-19T18:25:36.161Z,10.63
2022-12-19T18:28:02.552Z,10.64
2022-12-19T18:30:29.174Z,10.64
2022-12-19T18:41:24.123Z,10.58
2022-12-19T18:43:50.618Z,10.54
2022-12-19T18:46:18.649Z,10.52
2022-12-19T18:48:45.802Z,10.56
2022-12-19T18:51:14.200Z,10.56
2022-12-19T18:53:40.838Z,10.57
2022-12-19T18:56:07.408Z,10.59
2022-12-19T18:58:35.807Z,10.61
2022-12-19T19:01:03.635Z,10.59
2022-12-19T19:03:32.266Z,10.59
2022-12-19T19:05:59.266Z,10.61
2022-12-19T19:08:26.612Z,10.60
2022-12-19T19:11:03.769Z,10.62
2022-12-19T19:13:30.255Z,10.67
2022-12-19T19:15:59.274Z,10.71
2022-12-19T19:18:26.616Z,10.74
2022-12-19T19:21:00.523Z,10.79
2022-12-19T19:23:29.698Z,10.82
2022-12-19T19:25:56.185Z,10.83
2022-12-19T19:28:22.683Z,10.79
2022-12-19T19:30:50.260Z,10.81
2022-12-19T19:33:20.843Z,10.81
2022-12-19T19:35:50.199Z,10.84
2022-12-19T19:38:18.139Z,10.86
2022-12-19T19:40:44.543Z,10.85
2022-12-19T19:43:11.055Z,10.84
2022-12-19T19:45:42.976Z,10.79
2022-12-19T19:48:10.532Z,10.76
2022-12-19T19:50:38.613Z,10.77
2022-12-19T19:53:05.576Z,10.81
2022-12-19T19:55:32.076Z,10.84
2022-12-19T19:57:58.511Z,10.80
2022-12-19T20:00:25.310Z,10.75
2022-12-19T20:02:51.911Z,10.73
2022-12-19T20:05:18.827Z,10.69
2022-12-19T20:07:46.600Z,10.70
2022-12-19T20:10:13.164Z,10.75
2022-12-19T20:12:39.630Z,10.76
2022-12-19T20:15:06.585Z,10.80
2022-12-19T20:17:33.126Z,10.83
2022-12-19T20:19:59.560Z,10.89
2022-12-19T20:22:26.095Z,10.92
2022-12-19T20:24:53.930Z,10.91
2022-12-19T20:27:20.468Z,10.92
2022-12-19T20:29:46.997Z,10.91
2022-12-19T20:32:13.523Z,10.90
2022-12-19T20:34:40.132Z,10.91
2022-12-19T20:37:06.860Z,10.93
2022-12-19T20:39:33.371Z,10.95
2022-12-19T20:42:01.345Z,10.93
2022-12-19T20:44:27.833Z,10.95
2022-12-19T20:46:54.381Z,10.93
2022-12-19T20:49:21.073Z,10.91
2022-12-19T20:51:47.585Z,10.89
2022-12-19T20:54:14.283Z,10.91
2022-12-19T20:56:41.561Z,10.92
2022-12-19T20:59:09.396Z,10.92
2022-12-19T21:01:36.117Z,10.92
2022-12-19T21:04:06.012Z,10.93
2022-12-19T21:06:33.035Z,10.90
2022-12-19T21:08:59.510Z,10.83
2022-12-19T21:11:26.143Z,10.76
2022-12-19T21:13:52.630Z,10.68
2022-12-19T21:16:21.564Z,10.62
2022-12-19T21:18:49.472Z,10.55
2022-12-19T21:21:17.259Z,10.51
2022-12-19T21:23:44.690Z,10.46
2022-12-19T21:26:11.197Z,10.45
2022-12-19T21:28:37.941Z,10.45
2022-12-19T21:31:05.758Z,10.48
2022-12-19T21:33:34.078Z,10.52
2022-12-19T21:36:07.315Z,10.52
2022-12-19T21:38:52.852Z,10.51
2022-12-19T21:41:26.298Z,10.51
2022-12-19T21:43:53.561Z,10.57
2022-12-19T21:46:21.907Z,10.65
2022-12-19T21:48:51.067Z,10.70
2022-12-19T21:51:18.887Z,10.74
2022-12-19T21:53:45.577Z,10.82
2022-12-19T21:56:23.010Z,10.88
2022-12-19T21:58:50.262Z,10.92
2022-12-19T22:01:16.706Z,10.94
2022-12-19T22:03:43.485Z,10.96
2022-12-19T22:06:14.774Z,11.00
2022-12-19T22:08:41.293Z,11.03
2022-12-19T22:11:11.078Z,11.08
2022-12-19T22:13:37.524Z,11.12
2022-12-19T22:16:04.130Z,11.18
2022-12-19T22:18:30.605Z,11.19
2022-12-19T22:20:57.659Z,11.20
2022-12-19T22:23:25.672Z,11.23
2022-12-19T22:25:59.619Z,11.27
2022-12-19T22:28:26.087Z,11.35
2022-12-19T22:30:52.507Z,11.40
2022-12-19T22:33:19.155Z,11.43
2022-12-19T22:35:45.594Z,11.46
2022-12-19T22:38:12.023Z,11.47
2022-12-19T22:40:39.910Z,11.48
2022-12-19T22:43:06.301Z,11.47
2022-12-19T22:45:32.768Z,11.43
2022-12-19T22:47:59.308Z,11.43
2022-12-19T22:50:25.742Z,11.43
2022-12-19T22:52:52.161Z,11.42
2022-12-19T22:55:18.615Z,11.44
2022-12-19T22:57:46.447Z,11.44
2022-12-19T23:00:13.771Z,11.44
2022-12-19T23:02:40.688Z,11.47
2022-12-19T23:05:07.598Z,11.46
2022-12-19T23:07:34.140Z,11.47
2022-12-19T23:10:00.743Z,11.46
2022-12-19T23:12:27.243Z,11.45
2022-12-19T23:14:55.173Z,11.45
2022-12-19T23:17:21.822Z,11.49
2022-12-19T23:19:48.216Z,11.54
2022-12-19T23:22:14.721Z,11.57
2022-12-19T23:24:41.324Z,11.60
2022-12-19T23:27:07.783Z,11.68
2022-12-19T23:29:34.204Z,11.71
2022-12-19T23:32:02.056Z,11.72
2022-12-19T23:34:28.463Z,11.77
2022-12-19T23:37:11.932Z,11.85
2022-12-19T23:39:39.103Z,11.92
2022-12-19T23:42:05.551Z,11.95
2022-12-19T23:44:32.280Z,11.99
2022-12-19T23:47:02.901Z,11.99
2022-12-19T23:49:32.119Z,12.01
2022-12-19T23:51:58.715Z,12.03
2022-12-19T23:54:25.387Z,12.03
2022-12-19T23:56:51.835Z,12.04
2022-12-19T23:59:18.364Z,12.05
